Summerville, Pennsylvania
Current Conditions -  °F | °C
As of 9:18 AM on Wednesday 28 Jan 2015 (Local Time) from KDUJ Reporting Station
Haze Haze  
Wind Chill: -4°   Ceiling: 500
Heat Index: 10°   Visibility: 1.7mi
Dew Point:   Wind: 10mph
Humidity: 84%   Direction: 270°W
Pressure: 30.2"   Gusts: NA
Location:  41.12°N, 79.19°W
Report Text: KDUJ 281418Z AUTO 27009KT 1 3/4SM BR OVC005 M12/M14 A3020 RMK AO2 I1000 T11221144
Loading
Personal Weather Stations






























Interactive Weather Map New forecast layout! Learn more

10-Day Weather Forecast

Advertisements
Track Severe Weather on mobile